Time;durP1;ratioP1;P1;durP2;ratioP2;P2;SDS_P1;SDS_P2;PMS_P1;PMS_P2;Temp;Humidity;BMP_temperature;BMP_pressure;BME280_temperature;BME280_humidity;BME280_pressure;Samples;Min_cycle;Max_cycle;Signal;HPM_P1;HPM_P2
2020/12/02 00:02:14;;;;;;;47.57;28.10;;;5.10;99.90;;;;;;5044014;28;20190;-64
2020/12/02 00:04:40;;;;;;;50.70;28.38;;;5.10;99.90;;;;;;5045907;28;20181;-64
2020/12/02 00:07:07;;;;;;;51.42;29.65;;;5.10;99.90;;;;;;5035596;28;20285;-66
2020/12/02 00:09:33;;;;;;;52.67;29.02;;;5.00;99.90;;;;;;5044806;28;20219;-65
2020/12/02 00:11:58;;;;;;;52.23;29.50;;;4.90;99.90;;;;;;5055778;28;20201;-65
2020/12/02 00:14:27;;;;;;;48.90;28.07;;;4.90;99.90;;;;;;5052064;28;20244;-65
2020/12/02 00:16:54;;;;;;;50.03;28.02;;;4.90;99.90;;;;;;5044485;28;20194;-65
2020/12/02 00:19:20;;;;;;;46.97;27.75;;;4.80;99.90;;;;;;5044172;28;20478;-65
2020/12/02 00:22:08;;;;;;;47.97;30.33;;;4.80;99.90;;;;;;5044325;28;20192;-63
2020/12/02 00:24:34;;;;;;;50.42;30.10;;;4.80;99.90;;;;;;5043616;28;20455;-63
2020/12/02 00:27:08;;;;;;;44.78;25.63;;;4.90;1.00;;;;;;5044883;28;20210;-63
2020/12/02 00:29:34;;;;;;;48.97;26.15;;;5.00;99.90;;;;;;5043665;28;20204;-63
2020/12/02 00:31:59;;;;;;;47.03;28.13;;;5.00;99.90;;;;;;5043579;28;20520;-62
2020/12/02 00:34:25;;;;;;;46.33;26.67;;;5.00;99.90;;;;;;5045050;28;20429;-63
2020/12/02 00:36:50;;;;;;;49.90;27.30;;;5.10;99.90;;;;;;5043316;28;20189;-63
2020/12/02 00:39:16;;;;;;;47.00;26.17;;;5.10;99.90;;;;;;5051721;28;20557;-63
2020/12/02 00:41:44;;;;;;;44.80;25.40;;;5.20;99.90;;;;;;5053643;28;20224;-63
2020/12/02 00:44:09;;;;;;;46.13;25.95;;;5.20;99.90;;;;;;5052955;28;20170;-62
2020/12/02 00:46:35;;;;;;;46.50;26.90;;;5.20;99.90;;;;;;5054639;28;20177;-62
2020/12/02 00:49:01;;;;;;;45.23;25.97;;;5.20;99.90;;;;;;5053732;28;20201;-62
2020/12/02 00:51:26;;;;;;;46.50;26.77;;;5.20;99.90;;;;;;5054648;28;20423;-62
2020/12/02 00:53:52;;;;;;;45.43;27.90;;;5.20;99.90;;;;;;5054302;28;20181;-62
2020/12/02 00:56:19;;;;;;;45.80;25.43;;;5.20;99.90;;;;;;5054457;28;20535;-62
2020/12/02 00:59:03;;;;;;;47.65;28.25;;;5.30;99.90;;;;;;5054620;28;20200;-63
2020/12/02 01:01:39;;;;;;;46.25;26.25;;;5.10;99.90;;;;;;5054621;28;20177;-63
2020/12/02 01:04:13;;;;;;;45.00;25.98;;;5.40;99.90;;;;;;5054248;28;20177;-63
2020/12/02 01:06:39;;;;;;;50.42;27.75;;;5.60;99.90;;;;;;5054341;28;20593;-63
2020/12/02 01:09:04;;;;;;;48.73;25.97;;;5.60;97.50;;;;;;5054268;28;20227;-63
2020/12/02 01:11:30;;;;;;;47.03;25.83;;;5.60;1.00;;;;;;5054392;28;20177;-62
2020/12/02 01:14:04;;;;;;;45.27;26.73;;;5.30;1.00;;;;;;5054147;28;20173;-63
2020/12/02 01:16:34;;;;;;;49.40;27.88;;;5.20;1.00;;;;;;5054273;28;20542;-62
2020/12/02 01:19:00;;;;;;;49.75;27.38;;;5.00;33.20;;;;;;5054218;28;20517;-63
2020/12/02 01:21:35;;;;;;;50.77;29.27;;;5.00;99.90;;;;;;5053220;28;20182;-63
2020/12/02 01:24:11;;;;;;;45.85;25.42;;;5.20;99.90;;;;;;5054298;28;20329;-63
2020/12/02 01:26:45;;;;;;;47.30;26.02;;;5.10;99.90;;;;;;5054285;28;20177;-63
2020/12/02 01:29:18;;;;;;;44.60;26.05;;;5.30;99.90;;;;;;5054236;28;20265;-61
2020/12/02 01:31:46;;;;;;;51.35;27.33;;;5.10;99.90;;;;;;5053071;28;20652;-61
2020/12/02 01:34:12;;;;;;;46.83;28.35;;;4.90;99.90;;;;;;5054006;28;20527;-63
2020/12/02 01:37:20;;;;;;;52.42;28.75;;;5.00;99.90;;;;;;5053802;28;20614;-63
2020/12/02 01:40:25;;;;;;;49.92;28.02;;;5.10;99.90;;;;;;5053392;28;20244;-63
2020/12/02 01:42:54;;;;;;;50.25;28.38;;;5.10;99.90;;;;;;5053579;28;20277;-64
2020/12/02 01:45:25;;;;;;;44.65;27.65;;;5.10;99.90;;;;;;5053141;28;20176;-63
2020/12/02 01:48:19;;;;;;;48.20;26.58;;;5.10;99.90;;;;;;5053591;28;20233;-63
2020/12/02 01:51:08;;;;;;;47.25;26.83;;;5.00;99.90;;;;;;5053715;28;20252;-63
2020/12/02 01:53:54;;;;;;;40.88;25.58;;;4.90;99.90;;;;;;5053749;28;20587;-61
2020/12/02 01:56:27;;;;;;;49.47;28.08;;;4.90;99.90;;;;;;5052585;28;20525;-64
2020/12/02 01:59:15;;;;;;;49.33;26.63;;;5.10;99.90;;;;;;5053560;28;20193;-65
2020/12/02 02:02:12;;;;;;;39.63;23.73;;;5.40;1.00;;;;;;5052748;28;20208;-64
2020/12/02 02:04:54;;;;;;;49.17;28.25;;;5.10;99.90;;;;;;5052407;28;20200;-62
2020/12/02 02:07:24;;;;;;;48.85;26.73;;;4.90;99.90;;;;;;5053487;28;20655;-62
2020/12/02 02:09:53;;;;;;;51.05;25.70;;;5.10;99.90;;;;;;5053545;28;20212;-62
2020/12/02 02:12:49;;;;;;;44.28;25.52;;;5.40;99.90;;;;;;5053344;28;20652;-62
2020/12/02 02:16:03;;;;;;;46.72;25.67;;;5.40;99.90;;;;;;5053421;28;20569;-64
2020/12/02 02:18:30;;;;;;;48.70;26.63;;;5.30;99.90;;;;;;5052879;28;20197;-64
2020/12/02 02:21:10;;;;;;;44.80;26.60;;;5.30;99.90;;;;;;5053802;28;20189;-61
2020/12/02 02:23:35;;;;;;;45.63;26.40;;;5.00;99.90;;;;;;5053592;28;20561;-64
2020/12/02 02:26:13;;;;;;;48.60;27.97;;;4.90;99.90;;;;;;5053538;28;20181;-61
2020/12/02 02:28:48;;;;;;;49.13;27.10;;;5.20;99.90;;;;;;5053593;28;20262;-60
2020/12/02 02:31:19;;;;;;;48.33;27.50;;;5.10;99.90;;;;;;5053693;28;20276;-62
2020/12/02 02:33:47;;;;;;;49.17;25.90;;;4.90;99.90;;;;;;5053188;28;20196;-62
2020/12/02 02:36:15;;;;;;;47.97;25.75;;;4.90;99.90;;;;;;5053480;28;20177;-62
2020/12/02 02:38:40;;;;;;;48.15;26.10;;;4.70;99.90;;;;;;5053235;28;20513;-60
2020/12/02 02:41:08;;;;;;;50.77;26.40;;;4.50;1.00;;;;;;5053261;28;20191;-60
2020/12/02 02:43:35;;;;;;;47.67;27.35;;;4.40;1.00;;;;;;5053194;28;20182;-59
2020/12/02 02:46:01;;;;;;;47.83;26.60;;;4.60;1.00;;;;;;5053418;28;20185;-59
2020/12/02 02:48:26;;;;;;;51.37;27.77;;;4.80;1.00;;;;;;5053114;28;20302;-62
2020/12/02 02:50:52;;;;;;;54.43;27.10;;;5.10;1.00;;;;;;5053095;28;20420;-62
2020/12/02 02:53:21;;;;;;;44.80;27.27;;;5.10;1.00;;;;;;5051709;28;20185;-62
2020/12/02 02:55:48;;;;;;;42.40;26.17;;;5.00;1.00;;;;;;5055057;28;20173;-62
2020/12/02 02:58:14;;;;;;;50.45;26.85;;;4.90;1.00;;;;;;5056974;28;20196;-63
2020/12/02 03:00:40;;;;;;;52.57;29.27;;;4.80;1.00;;;;;;5056661;28;20177;-63
2020/12/02 03:03:09;;;;;;;44.05;26.05;;;4.80;1.00;;;;;;5056335;28;20273;-61
2020/12/02 03:05:34;;;;;;;44.95;26.27;;;5.10;1.00;;;;;;5056429;28;20181;-61
2020/12/02 03:08:03;;;;;;;46.20;25.70;;;4.90;1.00;;;;;;5056619;28;20230;-61
2020/12/02 03:10:32;;;;;;;53.65;28.67;;;4.90;1.00;;;;;;5056457;28;20291;-61
2020/12/02 03:13:06;;;;;;;46.33;25.42;;;4.70;1.00;;;;;;5056228;28;20642;-61
2020/12/02 03:15:33;;;;;;;48.95;27.20;;;4.90;1.00;;;;;;5056316;28;20228;-60
2020/12/02 03:18:00;;;;;;;42.17;26.90;;;5.00;1.00;;;;;;5056217;28;20196;-63
2020/12/02 03:20:33;;;;;;;43.22;26.05;;;5.10;1.00;;;;;;5055315;28;20180;-63
2020/12/02 03:22:59;;;;;;;43.65;26.60;;;5.10;99.90;;;;;;5055295;28;20189;-64
2020/12/02 03:25:30;;;;;;;39.83;23.10;;;5.10;99.90;;;;;;5056019;28;20516;-64
2020/12/02 03:27:55;;;;;;;47.85;27.40;;;5.00;99.90;;;;;;5056187;28;20212;-64
2020/12/02 03:30:21;;;;;;;45.23;25.40;;;5.20;1.00;;;;;;5056128;28;20177;-64
2020/12/02 03:32:47;;;;;;;47.77;28.00;;;5.40;99.90;;;;;;5056095;28;20257;-60
2020/12/02 03:35:12;;;;;;;47.93;26.20;;;5.60;99.90;;;;;;5055701;28;20182;-60
2020/12/02 03:37:38;;;;;;;41.23;26.33;;;5.40;99.90;;;;;;5055924;28;20254;-61
2020/12/02 03:40:05;;;;;;;43.50;25.40;;;5.50;99.90;;;;;;5056073;28;20185;-62
2020/12/02 03:42:30;;;;;;;43.90;25.35;;;5.40;69.60;;;;;;5055845;28;20221;-61
2020/12/02 03:44:56;;;;;;;43.00;25.43;;;5.20;99.90;;;;;;5055506;28;20264;-61
2020/12/02 03:47:21;;;;;;;45.30;26.03;;;5.20;99.90;;;;;;5055654;28;20228;-64
2020/12/02 03:49:47;;;;;;;42.57;24.43;;;5.50;99.90;;;;;;5055823;28;20181;-63
2020/12/02 03:52:13;;;;;;;44.60;24.37;;;5.70;99.90;;;;;;5055655;28;20238;-65
2020/12/02 03:54:38;;;;;;;49.50;27.33;;;5.40;1.00;;;;;;5055452;28;20188;-65
2020/12/02 03:57:04;;;;;;;40.73;25.10;;;5.30;61.90;;;;;;5055637;28;20212;-64
2020/12/02 03:59:29;;;;;;;48.80;26.53;;;5.20;99.90;;;;;;5055642;28;20227;-62
2020/12/02 04:01:55;;;;;;;46.47;25.50;;;5.10;99.90;;;;;;5055334;28;20186;-60
2020/12/02 04:04:21;;;;;;;45.93;26.07;;;4.90;99.90;;;;;;5055284;28;20188;-62
2020/12/02 04:06:47;;;;;;;41.13;25.20;;;4.90;99.90;;;;;;5054832;28;20434;-63
2020/12/02 04:09:12;;;;;;;48.83;27.53;;;4.80;99.90;;;;;;5055387;28;20455;-63
2020/12/02 04:11:38;;;;;;;49.17;28.10;;;4.80;99.90;;;;;;5055245;28;20181;-63
2020/12/02 04:14:04;;;;;;;50.13;26.30;;;4.70;99.90;;;;;;5053971;28;20178;-63
2020/12/02 04:16:29;;;;;;;45.90;26.03;;;5.00;1.00;;;;;;5055175;28;20177;-65
2020/12/02 04:18:55;;;;;;;48.67;27.97;;;5.00;99.90;;;;;;5054306;28;20431;-65
2020/12/02 04:21:24;;;;;;;45.63;26.70;;;5.30;99.90;;;;;;5054202;28;20900;-65
2020/12/02 04:23:52;;;;;;;43.15;25.55;;;5.10;99.90;;;;;;5055211;28;20239;-64
2020/12/02 04:26:18;;;;;;;42.50;25.58;;;5.00;99.90;;;;;;5055232;28;20185;-64
2020/12/02 04:28:44;;;;;;;46.72;25.77;;;5.00;99.90;;;;;;5055006;28;20209;-64
2020/12/02 04:31:09;;;;;;;40.20;24.53;;;4.90;99.90;;;;;;5055097;28;20578;-64
2020/12/02 04:33:35;;;;;;;47.67;26.50;;;4.80;99.90;;;;;;5054867;28;20182;-65
2020/12/02 04:36:00;;;;;;;40.80;25.17;;;4.80;99.90;;;;;;5055064;28;20213;-65
2020/12/02 04:38:26;;;;;;;56.00;27.80;;;5.00;99.90;;;;;;5055109;28;20181;-64
2020/12/02 04:40:51;;;;;;;46.10;25.50;;;4.90;99.90;;;;;;5054974;28;20181;-64
2020/12/02 04:43:25;;;;;;;38.87;23.07;;;4.90;99.90;;;;;;5053483;28;20188;-64
2020/12/02 04:45:52;;;;;;;44.90;26.70;;;4.90;99.90;;;;;;5054865;28;20181;-64
2020/12/02 04:48:20;;;;;;;44.97;27.60;;;4.90;99.90;;;;;;5054827;28;20220;-64
2020/12/02 04:50:46;;;;;;;47.00;26.55;;;5.00;99.90;;;;;;5054867;28;20185;-64
2020/12/02 04:53:18;;;;;;;43.10;25.27;;;5.00;99.90;;;;;;5054438;28;20177;-64
2020/12/02 04:55:47;;;;;;;39.30;25.23;;;5.10;99.90;;;;;;5054788;28;20304;-64
2020/12/02 04:58:22;;;;;;;45.63;26.52;;;5.10;99.90;;;;;;5055074;28;20185;-64
2020/12/02 05:00:48;;;;;;;45.28;26.73;;;5.10;99.90;;;;;;5054985;28;20180;-64
2020/12/02 05:03:15;;;;;;;49.37;26.00;;;4.80;99.90;;;;;;5054593;28;20183;-64
2020/12/02 05:05:41;;;;;;;40.92;23.75;;;4.70;99.90;;;;;;5054786;28;20224;-65
2020/12/02 05:08:29;;;;;;;36.50;21.95;;;4.80;99.90;;;;;;5054425;28;20213;-65
2020/12/02 05:10:55;;;;;;;45.22;23.92;;;5.00;99.90;;;;;;5054568;28;20280;-65
2020/12/02 05:13:22;;;;;;;47.95;27.02;;;5.10;99.90;;;;;;5054481;28;20177;-65
2020/12/02 05:15:47;;;;;;;43.63;25.05;;;5.10;99.90;;;;;;5054748;28;20180;-66
2020/12/02 05:18:19;;;;;;;47.43;26.10;;;4.90;99.90;;;;;;5052504;28;20185;-65
2020/12/02 05:21:04;;;;;;;45.45;26.48;;;4.70;99.90;;;;;;5054661;28;20208;-65
2020/12/02 05:23:29;;;;;;;43.30;25.10;;;4.60;99.90;;;;;;5054379;28;20571;-65
2020/12/02 05:25:55;;;;;;;47.53;26.70;;;4.60;1.00;;;;;;5054641;28;20205;-64
2020/12/02 05:28:29;;;;;;;49.77;26.47;;;4.60;1.00;;;;;;5054319;28;20232;-65
2020/12/02 05:31:11;;;;;;;41.65;24.38;;;4.70;1.00;;;;;;5054328;28;20231;-65
2020/12/02 05:33:37;;;;;;;39.38;26.67;;;4.60;1.00;;;;;;5054188;28;20621;-64
2020/12/02 05:36:23;;;;;;;42.67;25.07;;;4.50;1.00;;;;;;5054390;28;20185;-64
2020/12/02 05:39:00;;;;;;;37.95;22.52;;;4.60;1.00;;;;;;5054215;28;20189;-64
2020/12/02 05:41:27;;;;;;;43.35;26.67;;;4.70;1.00;;;;;;5036893;28;20169;-64
2020/12/02 05:44:02;;;;;;;44.92;26.17;;;4.70;1.00;;;;;;5053632;28;20188;-64
2020/12/02 05:46:45;;;;;;;45.20;26.65;;;4.70;1.00;;;;;;5053843;28;20177;-64
2020/12/02 05:49:16;;;;;;;46.80;24.80;;;4.90;1.00;;;;;;5053617;28;20282;-64
2020/12/02 05:51:41;;;;;;;40.75;25.17;;;4.90;1.00;;;;;;5053686;28;20201;-64
2020/12/02 05:54:15;;;;;;;44.77;24.70;;;4.80;99.90;;;;;;5053867;28;20220;-64
2020/12/02 05:56:44;;;;;;;42.35;26.15;;;4.70;99.90;;;;;;5053552;28;20272;-64
2020/12/02 05:59:10;;;;;;;40.97;23.27;;;4.50;99.90;;;;;;5053598;28;20181;-64
2020/12/02 06:01:35;;;;;;;45.57;25.17;;;4.30;1.00;;;;;;5053905;28;20220;-65
2020/12/02 06:04:02;;;;;;;48.03;26.13;;;4.40;1.00;;;;;;5053346;28;20173;-65
2020/12/02 06:06:30;;;;;;;44.50;27.23;;;4.40;1.00;;;;;;5054073;28;20186;-64
2020/12/02 06:08:56;;;;;;;41.47;22.67;;;4.40;1.00;;;;;;5053535;28;20212;-64
2020/12/02 06:11:32;;;;;;;44.33;25.50;;;4.50;1.00;;;;;;5053678;28;20216;-64
2020/12/02 06:14:30;;;;;;;42.13;24.98;;;4.70;1.00;;;;;;5053394;28;20189;-64
2020/12/02 06:16:56;;;;;;;40.90;24.40;;;4.80;1.00;;;;;;5053169;28;20189;-65
2020/12/02 06:19:50;;;;;;;41.42;23.70;;;4.80;1.00;;;;;;5053701;28;20181;-65
2020/12/02 06:22:33;;;;;;;44.30;25.02;;;4.70;1.00;;;;;;5052720;28;20643;-65
2020/12/02 06:24:59;;;;;;;53.17;26.52;;;4.70;1.00;;;;;;5053399;28;20513;-65
2020/12/02 06:27:30;;;;;;;44.00;27.40;;;4.70;1.00;;;;;;5053234;28;20213;-62
2020/12/02 06:30:04;;;;;;;54.67;27.90;;;4.70;1.00;;;;;;5054487;28;20264;-61
2020/12/02 06:32:31;;;;;;;34.95;21.83;;;4.60;1.00;;;;;;5057432;28;20274;-62
2020/12/02 06:35:12;;;;;;;36.70;22.55;;;4.60;1.00;;;;;;5057009;28;20625;-63
2020/12/02 06:37:38;;;;;;;46.42;26.67;;;4.60;1.00;;;;;;5057427;28;20259;-62
2020/12/02 06:40:04;;;;;;;44.53;25.10;;;4.50;1.00;;;;;;5057187;28;20721;-62
2020/12/02 06:42:33;;;;;;;46.37;26.00;;;4.60;1.00;;;;;;5056995;28;20185;-62
2020/12/02 06:45:08;;;;;;;45.08;26.50;;;4.70;1.00;;;;;;5056482;28;20558;-63
2020/12/02 06:47:49;;;;;;;39.55;23.50;;;4.80;1.00;;;;;;5056938;28;20231;-62
2020/12/02 06:50:23;;;;;;;40.60;23.52;;;4.80;1.00;;;;;;5056640;28;20204;-61
2020/12/02 06:52:49;;;;;;;40.75;22.70;;;5.00;1.00;;;;;;5056600;28;20179;-60
2020/12/02 06:55:24;;;;;;;39.05;23.15;;;5.00;1.00;;;;;;5056652;28;20169;-65
2020/12/02 06:58:03;;;;;;;44.17;23.80;;;5.10;99.90;;;;;;5056597;28;20536;-65
2020/12/02 07:00:37;;;;;;;40.30;25.15;;;5.00;99.90;;;;;;5056516;28;20185;-63
2020/12/02 07:03:14;;;;;;;46.08;24.58;;;5.00;99.90;;;;;;5056623;28;20185;-63
2020/12/02 07:05:43;;;;;;;39.85;23.85;;;4.80;99.90;;;;;;5056368;28;20191;-62
2020/12/02 07:08:21;;;;;;;37.65;22.23;;;4.90;99.90;;;;;;5056307;28;20216;-63
2020/12/02 07:10:59;;;;;;;40.22;23.83;;;5.00;99.90;;;;;;5056480;28;20188;-64
2020/12/02 07:13:25;;;;;;;40.45;24.83;;;5.00;99.90;;;;;;5056002;28;20181;-66
2020/12/02 07:15:50;;;;;;;43.88;24.10;;;5.20;99.90;;;;;;5056635;28;20235;-65
2020/12/02 07:18:20;;;;;;;42.90;25.23;;;5.10;99.90;;;;;;5056479;28;20182;-65
2020/12/02 07:21:07;;;;;;;46.53;29.77;;;5.20;99.90;;;;;;5055699;28;20192;-65
2020/12/02 07:23:33;;;;;;;37.90;21.58;;;5.10;99.90;;;;;;5055241;28;20188;-62
2020/12/02 07:26:00;;;;;;;35.47;22.97;;;5.10;99.90;;;;;;5056403;28;20185;-61
2020/12/02 07:28:26;;;;;;;40.22;24.85;;;5.10;99.90;;;;;;5056459;28;20539;-61
2020/12/02 07:30:51;;;;;;;40.50;24.73;;;4.80;99.90;;;;;;5056264;28;20181;-63
2020/12/02 07:33:27;;;;;;;48.40;24.30;;;4.70;99.90;;;;;;5054872;28;20288;-61
2020/12/02 07:36:05;;;;;;;38.85;23.15;;;4.70;99.90;;;;;;5056058;28;20522;-63
2020/12/02 07:38:31;;;;;;;45.55;26.98;;;4.60;99.90;;;;;;5046661;28;20181;-61
2020/12/02 07:41:07;;;;;;;44.30;22.87;;;4.60;99.90;;;;;;5044296;28;20637;-62
2020/12/02 07:43:33;;;;;;;38.75;23.60;;;4.60;1.00;;;;;;5050437;28;20181;-62
2020/12/02 07:46:02;;;;;;;39.83;23.00;;;4.60;1.00;;;;;;5055858;28;20230;-61
2020/12/02 07:48:29;;;;;;;43.03;23.33;;;4.50;1.00;;;;;;5051673;28;20214;-61
2020/12/02 07:51:04;;;;;;;41.22;24.23;;;4.40;1.00;;;;;;5036151;28;20228;-64
2020/12/02 07:54:07;;;;;;;41.03;24.38;;;4.40;1.00;;;;;;5035259;28;20192;-62
2020/12/02 07:56:36;;;;;;;42.55;25.05;;;4.40;1.00;;;;;;5054708;28;20637;-62
2020/12/02 07:59:19;;;;;;;48.70;25.75;;;4.40;1.00;;;;;;5055535;28;20220;-62
2020/12/02 08:01:58;;;;;;;39.10;23.98;;;4.30;1.00;;;;;;5055462;28;20213;-62
2020/12/02 08:04:23;;;;;;;114.70;62.17;;;4.40;1.00;;;;;;5055302;28;20240;-61
2020/12/02 08:06:58;;;;;;;42.40;25.07;;;4.40;1.00;;;;;;5055697;28;20323;-63
2020/12/02 08:09:23;;;;;;;36.85;22.02;;;4.40;1.00;;;;;;5055543;28;20208;-62
2020/12/02 08:11:58;;;;;;;40.13;21.50;;;4.40;1.00;;;;;;5048884;28;20270;-62
2020/12/02 08:14:31;;;;;;;44.05;22.88;;;4.40;1.00;;;;;;5048678;28;20178;-63
2020/12/02 08:17:14;;;;;;;36.72;22.85;;;4.50;1.00;;;;;;5043925;28;20198;-62
2020/12/02 08:19:42;;;;;;;37.58;23.33;;;4.50;1.00;;;;;;5050692;28;20617;-62
2020/12/02 08:22:20;;;;;;;36.60;22.13;;;4.70;1.00;;;;;;5058557;28;20660;-62
2020/12/02 08:24:46;;;;;;;37.90;22.35;;;4.60;1.00;;;;;;5050061;28;20304;-63
2020/12/02 08:27:14;;;;;;;50.73;30.83;;;4.60;1.00;;;;;;5040697;28;20702;-62
2020/12/02 08:29:48;;;;;;;44.17;27.27;;;4.70;1.00;;;;;;5051651;28;20211;-63
2020/12/02 08:32:32;;;;;;;49.70;28.50;;;4.90;1.00;;;;;;5054645;28;20265;-62
2020/12/02 08:34:57;;;;;;;40.05;24.13;;;4.90;99.90;;;;;;5074896;28;20184;-62
2020/12/02 08:37:34;;;;;;;41.70;22.90;;;4.70;99.90;;;;;;5074730;28;20189;-62
2020/12/02 08:40:20;;;;;;;44.72;24.75;;;4.50;99.90;;;;;;5074626;28;20613;-62
2020/12/02 08:42:45;;;;;;;35.45;21.50;;;4.50;99.90;;;;;;5055441;28;20193;-62
2020/12/02 08:45:23;;;;;;;32.83;21.87;;;4.70;1.00;;;;;;5054701;28;20257;-62
2020/12/02 08:47:56;;;;;;;52.03;29.80;;;4.60;99.90;;;;;;5040154;28;20299;-62
2020/12/02 08:50:27;;;;;;;45.63;25.45;;;4.60;99.90;;;;;;5052264;28;20636;-63
2020/12/02 08:52:55;;;;;;;37.00;21.75;;;4.70;99.90;;;;;;5054098;28;20185;-62
2020/12/02 08:55:21;;;;;;;39.80;23.83;;;4.70;99.90;;;;;;5054251;28;20210;-63
2020/12/02 08:57:47;;;;;;;37.03;24.13;;;4.60;99.90;;;;;;5052024;28;20209;-62
2020/12/02 09:00:21;;;;;;;37.67;22.30;;;4.50;99.90;;;;;;5034622;28;20195;-62
2020/12/02 09:02:48;;;;;;;46.80;25.77;;;4.70;99.90;;;;;;5034536;28;20561;-63
2020/12/02 09:05:14;;;;;;;37.65;22.20;;;4.70;99.90;;;;;;5034305;28;20225;-63
2020/12/02 09:07:39;;;;;;;39.40;21.90;;;4.80;99.90;;;;;;5034125;28;20299;-62
2020/12/02 09:10:05;;;;;;;41.40;23.70;;;4.70;99.90;;;;;;5034300;28;20435;-62
2020/12/02 09:12:31;;;;;;;35.45;22.52;;;4.80;99.90;;;;;;5038938;28;20654;-62
2020/12/02 09:14:57;;;;;;;53.50;28.10;;;4.70;99.90;;;;;;5045123;28;20213;-62
2020/12/02 09:17:22;;;;;;;42.87;25.20;;;4.60;1.00;;;;;;5041126;28;20188;-63
2020/12/02 09:19:50;;;;;;;48.87;29.17;;;4.40;99.90;;;;;;5034612;28;20624;-63
2020/12/02 09:22:16;;;;;;;41.05;24.92;;;4.60;99.90;;;;;;5052319;28;20445;-63
2020/12/02 09:24:43;;;;;;;40.38;23.92;;;4.80;99.90;;;;;;5065870;28;20306;-63
2020/12/02 09:27:09;;;;;;;36.90;22.63;;;4.90;99.90;;;;;;5074243;28;20253;-63
2020/12/02 09:29:35;;;;;;;37.43;22.00;;;4.80;91.90;;;;;;5054831;28;20182;-63
2020/12/02 09:32:00;;;;;;;33.40;22.03;;;4.80;99.90;;;;;;5033002;28;20178;-63
2020/12/02 09:34:25;;;;;;;40.13;24.83;;;4.80;99.90;;;;;;5033994;28;20176;-63
2020/12/02 09:36:51;;;;;;;38.60;23.13;;;5.10;99.90;;;;;;5045721;28;20251;-61
2020/12/02 09:39:17;;;;;;;38.60;23.27;;;5.00;4.70;;;;;;5054671;28;20181;-61
2020/12/02 09:41:51;;;;;;;39.60;23.47;;;4.90;8.00;;;;;;5055479;28;20181;-62
2020/12/02 09:44:40;;;;;;;36.22;22.35;;;4.90;1.00;;;;;;5055587;28;20539;-62
2020/12/02 09:47:09;;;;;;;38.55;22.60;;;4.80;1.00;;;;;;5043111;28;20224;-64
2020/12/02 09:49:35;;;;;;;36.55;22.80;;;4.60;13.30;;;;;;5044044;28;20561;-63
2020/12/02 09:52:10;;;;;;;37.20;23.45;;;4.50;99.90;;;;;;5053211;28;20212;-62
2020/12/02 09:54:46;;;;;;;41.20;26.08;;;4.50;99.90;;;;;;5053160;28;20180;-64
2020/12/02 09:57:26;;;;;;;37.00;23.48;;;4.70;99.90;;;;;;5055190;28;20184;-64
2020/12/02 09:59:52;;;;;;;37.70;22.67;;;4.60;99.90;;;;;;5055427;28;20168;-64
2020/12/02 10:02:23;;;;;;;35.67;21.58;;;4.50;99.90;;;;;;5055400;28;20181;-62
2020/12/02 10:05:14;;;;;;;37.67;24.00;;;4.50;99.90;;;;;;5055495;28;20625;-62
2020/12/02 10:08:00;;;;;;;40.83;23.73;;;4.60;99.90;;;;;;5058685;28;20260;-61
2020/12/02 10:10:46;;;;;;;40.95;24.65;;;4.80;99.90;;;;;;5060045;28;20177;-60
2020/12/02 10:13:43;;;;;;;40.63;23.73;;;5.00;99.90;;;;;;5056686;28;20177;-60
2020/12/02 10:16:25;;;;;;;37.63;22.48;;;5.10;99.90;;;;;;5054117;28;20185;-60
2020/12/02 10:19:37;;;;;;;40.17;24.45;;;5.10;1.00;;;;;;5053706;28;20220;-60
2020/12/02 10:22:26;;;;;;;39.88;23.08;;;5.10;1.00;;;;;;5051534;28;20188;-60
2020/12/02 10:25:18;;;;;;;48.92;29.17;;;5.20;1.00;;;;;;5034234;28;20194;-60
2020/12/02 10:27:57;;;;;;;42.60;23.73;;;5.00;1.00;;;;;;5033790;28;20201;-64
2020/12/02 10:30:26;;;;;;;41.20;26.25;;;5.00;1.00;;;;;;5033916;28;20537;-64
2020/12/02 10:33:11;;;;;;;41.28;24.85;;;5.10;1.00;;;;;;5033223;28;20590;-64
2020/12/02 10:35:39;;;;;;;40.05;24.25;;;5.00;1.00;;;;;;5034019;28;20611;-64
2020/12/02 10:38:13;;;;;;;52.72;29.30;;;4.80;1.00;;;;;;5034585;28;20198;-64
2020/12/02 10:40:47;;;;;;;38.75;23.38;;;4.70;25.40;;;;;;5034024;28;20192;-64
2020/12/02 10:43:25;;;;;;;46.28;28.13;;;4.80;99.90;;;;;;5033114;28;20273;-62
2020/12/02 10:45:54;;;;;;;35.65;22.23;;;4.80;12.70;;;;;;5034139;28;20174;-63
2020/12/02 10:48:57;;;;;;;39.55;25.38;;;5.10;21.50;;;;;;5054100;28;20213;-63
2020/12/02 10:51:22;;;;;;;41.00;23.73;;;4.90;1.00;;;;;;5054687;28;20238;-65
2020/12/02 10:53:50;;;;;;;37.37;24.83;;;5.20;1.00;;;;;;5053649;28;20208;-63
2020/12/02 10:56:19;;;;;;;36.42;22.67;;;5.40;1.00;;;;;;5053883;28;20196;-65
2020/12/02 10:58:46;;;;;;;35.90;22.67;;;5.50;99.90;;;;;;5053444;28;20174;-64
2020/12/02 11:01:12;;;;;;;36.03;22.38;;;5.50;99.90;;;;;;5052640;28;20195;-63
2020/12/02 11:03:39;;;;;;;38.60;23.48;;;5.30;36.30;;;;;;5052921;28;20192;-63
2020/12/02 11:06:32;;;;;;;37.83;25.08;;;5.30;99.90;;;;;;5053557;28;20190;-62
2020/12/02 11:09:13;;;;;;;34.03;21.55;;;5.10;99.90;;;;;;5053063;28;20660;-63
2020/12/02 11:11:53;;;;;;;42.85;22.30;;;5.10;99.90;;;;;;5052830;28;20181;-61
2020/12/02 11:14:47;;;;;;;39.60;24.13;;;5.10;1.00;;;;;;5052931;28;20182;-66
2020/12/02 11:17:33;;;;;;;36.83;22.63;;;5.10;1.00;;;;;;5055680;28;20181;-61
2020/12/02 11:20:05;;;;;;;37.35;24.10;;;4.80;1.00;;;;;;5054975;28;20177;-61
2020/12/02 11:22:46;;;;;;;40.55;23.38;;;4.80;1.00;;;;;;5036666;28;20174;-63
2020/12/02 11:25:18;;;;;;;39.75;25.13;;;5.00;1.00;;;;;;5056022;28;20184;-63
2020/12/02 11:27:44;;;;;;;33.72;22.65;;;4.90;1.00;;;;;;5056208;28;20233;-63
2020/12/02 11:30:20;;;;;;;38.97;24.52;;;5.00;1.00;;;;;;5056333;28;20184;-64
2020/12/02 11:32:58;;;;;;;39.10;23.77;;;5.10;1.00;;;;;;5055012;28;20172;-61
2020/12/02 11:36:13;;;;;;;40.50;26.00;;;5.10;1.00;;;;;;5055616;28;20177;-61
2020/12/02 11:38:47;;;;;;;34.50;22.27;;;5.00;1.00;;;;;;5055953;28;20393;-61
2020/12/02 11:41:23;;;;;;;37.28;23.00;;;5.00;1.00;;;;;;5055051;28;20185;-65
2020/12/02 11:43:55;;;;;;;34.55;22.33;;;5.10;1.00;;;;;;5054644;28;20181;-65
2020/12/02 11:46:22;;;;;;;42.03;23.52;;;5.10;1.00;;;;;;5055810;28;20188;-61
2020/12/02 11:49:15;;;;;;;40.97;23.60;;;4.90;1.00;;;;;;5055766;28;20204;-61
2020/12/02 11:51:56;;;;;;;34.95;23.02;;;5.10;1.00;;;;;;5056005;28;20227;-65
2020/12/02 11:54:23;;;;;;;38.75;23.63;;;5.10;1.00;;;;;;5055537;28;20169;-65
2020/12/02 11:56:52;;;;;;;36.08;22.90;;;4.90;1.00;;;;;;5055892;28;20652;-63
2020/12/02 11:59:21;;;;;;;39.17;23.60;;;4.90;1.00;;;;;;5055797;28;20265;-63
2020/12/02 12:01:55;;;;;;;35.67;23.35;;;4.90;1.00;;;;;;5055753;28;20186;-64
2020/12/02 12:04:24;;;;;;;34.80;23.13;;;4.90;1.00;;;;;;5055613;28;20245;-61
2020/12/02 12:06:53;;;;;;;39.53;24.63;;;5.10;16.90;;;;;;5055503;28;20197;-62
2020/12/02 12:09:29;;;;;;;35.67;23.83;;;5.20;1.00;;;;;;5054434;28;20271;-62
2020/12/02 12:12:01;;;;;;;36.10;23.42;;;5.10;1.00;;;;;;5055460;28;20177;-62
2020/12/02 12:14:49;;;;;;;36.20;23.52;;;5.30;1.00;;;;;;5038472;28;20666;-65
2020/12/02 12:17:42;;;;;;;38.42;24.40;;;5.50;1.00;;;;;;5035102;28;20178;-64
2020/12/02 12:20:24;;;;;;;41.38;23.92;;;5.50;99.90;;;;;;5038371;28;20514;-63
2020/12/02 12:23:05;;;;;;;33.00;22.33;;;5.20;99.90;;;;;;5040717;28;20178;-64
2020/12/02 12:25:34;;;;;;;33.72;22.35;;;5.10;99.90;;;;;;5034853;28;20511;-64
2020/12/02 12:28:04;;;;;;;38.00;24.77;;;5.10;99.90;;;;;;5050156;28;20309;-63
2020/12/02 12:30:30;;;;;;;35.20;22.73;;;5.30;99.90;;;;;;5051766;28;20205;-65
2020/12/02 12:33:15;;;;;;;40.13;24.33;;;5.50;62.50;;;;;;5046660;28;20227;-64
2020/12/02 12:35:46;;;;;;;29.98;20.38;;;5.60;1.00;;;;;;5055269;28;20594;-65
2020/12/02 12:38:24;;;;;;;36.63;23.80;;;5.60;99.90;;;;;;5054779;28;20239;-66
2020/12/02 12:40:58;;;;;;;34.72;23.10;;;5.50;99.90;;;;;;5054699;28;20201;-66
2020/12/02 12:43:29;;;;;;;41.60;26.00;;;5.50;99.90;;;;;;5053414;28;20192;-66
2020/12/02 12:46:04;;;;;;;37.35;23.42;;;5.50;99.90;;;;;;5054591;28;20189;-60
2020/12/02 12:48:29;;;;;;;37.65;22.33;;;5.60;1.00;;;;;;5050670;28;20216;-65
2020/12/02 12:50:58;;;;;;;34.73;21.67;;;5.80;99.90;;;;;;5052092;28;20559;-66
2020/12/02 12:53:23;;;;;;;34.47;23.35;;;5.70;1.00;;;;;;5054271;28;20498;-67
2020/12/02 12:55:57;;;;;;;35.53;23.50;;;5.50;1.00;;;;;;5048621;28;20197;-68
2020/12/02 12:58:23;;;;;;;36.58;23.45;;;5.40;99.90;;;;;;5054998;28;20283;-66
2020/12/02 13:00:50;;;;;;;37.38;23.90;;;5.60;99.90;;;;;;5046583;28;20196;-65
2020/12/02 13:03:17;;;;;;;31.38;21.98;;;5.70;1.00;;;;;;5054708;28;20181;-63
2020/12/02 13:06:10;;;;;;;34.72;23.27;;;5.60;1.00;;;;;;5054890;28;20200;-63
2020/12/02 13:09:06;;;;;;;35.83;21.90;;;5.70;99.90;;;;;;5034888;28;20229;-64